CFS weather

Coffs Harbour Airport
Coffs Harbour, New South Wales, Australia

Public forecast

Using degrees Celsius for public forecast. Weather courtesy of forecast.io.

METAR (pilot weather report)

Closest report is Grafton Airport, 34.0 nm (62.9 km) N. Retrieved 2017/11/22 06:00 UTC (21 minutes ago):

YGFN 220600Z AUTO 10008KT 9999 // BKN072 23/14 Q1016

TAF (pilot weather forecast)

Closest forecast is Taree Airport, 99.1 nm (183.5 km) SSW. Retrieved 2017/11/22 08:03 UTC (0 seconds ago):

TAF TAF YTRE 220654Z 2208/2220 13010KT 9999 -SHRA SCT030 BKN050 BECMG 2208/2210 VRB03KT 9999 -SHRA SCT030 BKN050 INTER 2208/2220 4000 SHRA BKN015